Time;durP1;ratioP1;P1;durP2;ratioP2;P2;SDS_P1;SDS_P2;PMS_P1;PMS_P2;Temp;Humidity;BMP_temperature;BMP_pressure;BME280_temperature;BME280_humidity;BME280_pressure;Samples;Min_cycle;Max_cycle;Signal;HPM_P1;HPM_P2
2022/03/28 00:02:22;;;;;;;6.55;2.45;;;;;;;-3.90;100.00;101766.52;1708843;83;21828;-84
2022/03/28 00:04:50;;;;;;;3.42;2.05;;;;;;;-3.92;100.00;101763.98;1708601;83;21000;-87
2022/03/28 00:07:18;;;;;;;2.87;2.42;;;;;;;-3.93;100.00;101768.63;1708363;83;21518;-87
2022/03/28 00:09:47;;;;;;;4.37;2.42;;;;;;;-3.94;100.00;101765.66;1708534;83;21098;-83
2022/03/28 00:12:16;;;;;;;3.33;2.33;;;;;;;-3.94;100.00;101772.02;1701803;83;21081;-82
2022/03/28 00:14:43;;;;;;;4.60;2.00;;;;;;;-3.97;100.00;101769.05;1688313;83;21035;-81
2022/03/28 00:17:10;;;;;;;3.12;2.15;;;;;;;-4.00;100.00;101769.46;1688097;84;21022;-83
2022/03/28 00:19:39;;;;;;;4.00;2.15;;;;;;;-4.01;100.00;101767.35;1688765;84;21145;-81
2022/03/28 00:22:08;;;;;;;6.05;2.25;;;;;;;-4.04;100.00;101764.78;1688464;83;21610;-85
2022/03/28 00:24:35;;;;;;;4.50;2.02;;;;;;;-4.08;100.00;101764.76;1688953;83;21037;-84
2022/03/28 00:27:03;;;;;;;6.33;2.50;;;;;;;-4.12;100.00;101763.89;1688418;85;21542;-82
2022/03/28 00:29:30;;;;;;;3.20;2.17;;;;;;;-4.15;100.00;101764.73;1687766;83;21056;-81
2022/03/28 00:31:57;;;;;;;3.37;1.98;;;;;;;-4.17;100.00;101768.13;1688075;84;21665;-82
2022/03/28 00:34:25;;;;;;;4.72;2.50;;;;;;;-4.19;100.00;101766.83;1687858;84;21363;-82
2022/03/28 00:36:54;;;;;;;4.53;2.42;;;;;;;-4.19;100.00;101764.72;1688344;84;21128;-81
2022/03/28 00:39:21;;;;;;;3.20;2.20;;;;;;;-4.19;100.00;101763.45;1686923;83;21220;-83
2022/03/28 00:41:51;;;;;;;3.83;2.50;;;;;;;-4.18;100.00;101767.70;1685877;85;21602;-83
2022/03/28 00:44:20;;;;;;;4.22;1.98;;;;;;;-4.18;100.00;101771.51;1685678;85;21098;-81
2022/03/28 00:46:47;;;;;;;3.33;2.30;;;;;;;-4.19;100.00;101771.91;1685630;84;21030;-81
2022/03/28 00:49:15;;;;;;;3.98;2.30;;;;;;;-4.19;100.00;101775.73;1685875;85;21041;-81
2022/03/28 00:51:43;;;;;;;6.47;2.40;;;;;;;-4.20;100.00;101782.93;1684596;85;21261;-82
2022/03/28 00:54:12;;;;;;;5.42;2.33;;;;;;;-4.21;100.00;101779.98;1685402;85;21149;-86
2022/03/28 00:56:42;;;;;;;7.78;2.42;;;;;;;-4.21;100.00;101774.89;1685273;85;21070;-82
2022/03/28 00:59:11;;;;;;;5.70;2.10;;;;;;;-4.19;100.00;101777.44;1686513;85;21065;-82
2022/03/28 01:01:39;;;;;;;3.65;2.20;;;;;;;-4.20;100.00;101777.84;1685957;85;21148;-81
2022/03/28 01:04:07;;;;;;;4.70;2.45;;;;;;;-4.21;100.00;101785.07;1686190;85;21545;-82
2022/03/28 01:06:37;;;;;;;4.72;2.20;;;;;;;-4.22;100.00;101788.45;1686140;85;21031;-82
2022/03/28 01:09:06;;;;;;;5.33;2.90;;;;;;;-4.24;100.00;101786.72;1664730;85;21018;-81
2022/03/28 01:11:35;;;;;;;5.62;2.62;;;;;;;-4.26;100.00;101788.42;1685878;84;22310;-80
2022/03/28 01:14:03;;;;;;;8.65;3.15;;;;;;;-4.28;100.00;101785.85;1733297;81;21563;-83
2022/03/28 01:18:05;;;;;;;6.85;2.67;;;;;;;-4.30;100.00;101789.67;1739770;81;21792;-81
2022/03/28 01:19:01;;;;;;;7.05;3.42;;;;;;;-4.32;100.00;101797.70;1741601;82;21745;-81
2022/03/28 01:21:28;;;;;;;9.90;3.70;;;;;;;-4.33;100.00;101797.30;1741865;82;21494;-81
2022/03/28 01:23:56;;;;;;;6.67;3.30;;;;;;;-4.34;100.00;101801.09;1741717;81;21050;-86
2022/03/28 01:26:24;;;;;;;5.47;3.10;;;;;;;-4.36;100.00;101801.48;1741651;82;21041;-87
2022/03/28 01:28:52;;;;;;;5.58;2.70;;;;;;;-4.38;100.00;101798.95;1741785;81;21145;-81
2022/03/28 01:31:19;;;;;;;5.97;3.05;;;;;;;-4.41;100.00;101799.34;1741393;82;21085;-81
2022/03/28 01:33:46;;;;;;;8.98;3.42;;;;;;;-4.42;100.00;101796.37;1742169;82;21077;-82
2022/03/28 01:36:13;;;;;;;7.17;3.08;;;;;;;-4.46;100.00;101792.56;1741659;81;21053;-81
2022/03/28 01:38:41;;;;;;;7.25;2.92;;;;;;;-4.46;100.00;101794.23;1739940;82;21002;-80
2022/03/28 01:41:08;;;;;;;7.10;2.42;;;;;;;-4.46;100.00;101792.97;1735833;81;21135;-80
2022/03/28 01:43:36;;;;;;;4.22;2.40;;;;;;;-4.45;100.00;101791.69;1721270;83;21553;-82
2022/03/28 01:46:03;;;;;;;4.85;2.70;;;;;;;-4.44;100.00;101796.37;1720548;83;21047;-82
2022/03/28 01:48:32;;;;;;;5.10;2.33;;;;;;;-4.44;100.00;101797.21;1715306;83;21005;-81
2022/03/28 01:50:59;;;;;;;4.53;2.85;;;;;;;-4.42;100.00;101791.28;1715711;83;21081;-81
2022/03/28 01:53:26;;;;;;;4.40;2.47;;;;;;;-4.44;100.00;101792.13;1715071;83;21598;-80
2022/03/28 01:55:53;;;;;;;4.20;2.42;;;;;;;-4.45;100.00;101790.42;1715366;83;21066;-81
2022/03/28 01:58:21;;;;;;;5.67;2.60;;;;;;;-4.49;100.00;101795.07;1715474;83;21043;-81
2022/03/28 02:00:48;;;;;;;7.53;2.47;;;;;;;-4.51;100.00;101804.81;1715560;83;22003;-82
2022/03/28 02:03:15;;;;;;;4.00;2.20;;;;;;;-4.54;100.00;101803.10;1712500;83;21018;-84
2022/03/28 02:05:43;;;;;;;4.35;2.30;;;;;;;-4.56;100.00;101802.23;1719234;83;21111;-85
2022/03/28 02:08:10;;;;;;;3.02;2.30;;;;;;;-4.57;100.00;101799.25;1720296;83;21067;-85
2022/03/28 02:10:39;;;;;;;6.97;2.50;;;;;;;-4.64;100.00;101800.89;1719737;83;21572;-82
2022/03/28 02:13:06;;;;;;;3.22;2.05;;;;;;;-4.65;100.00;101807.25;1690139;83;21028;-82
2022/03/28 02:15:34;;;;;;;7.17;2.77;;;;;;;-4.66;100.00;101811.49;1719781;83;21089;-82
2022/03/28 02:18:02;;;;;;;3.22;2.50;;;;;;;-4.67;100.00;101807.64;1720038;83;21782;-81
2022/03/28 02:20:29;;;;;;;3.77;2.40;;;;;;;-4.70;100.00;101807.64;1719865;83;21506;-80
2022/03/28 02:22:56;;;;;;;5.10;2.75;;;;;;;-4.71;100.00;101809.31;1719342;83;21111;-80
2022/03/28 02:25:25;;;;;;;4.37;2.30;;;;;;;-4.71;100.00;101816.11;1719288;83;21047;-81
2022/03/28 02:27:53;;;;;;;4.42;2.02;;;;;;;-4.73;100.00;101819.05;1718195;83;21607;-82
2022/03/28 02:30:20;;;;;;;3.65;2.70;;;;;;;-4.72;100.00;101824.56;1720457;83;21858;-81
2022/03/28 02:32:48;;;;;;;2.75;2.12;;;;;;;-4.73;100.00;101821.59;1720403;83;21083;-81
2022/03/28 02:35:16;;;;;;;4.42;2.50;;;;;;;-4.75;100.00;101829.21;1719027;83;21086;-81
2022/03/28 02:37:43;;;;;;;3.72;2.15;;;;;;;-4.75;100.00;101831.75;1715197;83;21032;-82
2022/03/28 02:40:12;;;;;;;6.00;2.65;;;;;;;-4.76;100.00;101835.97;1715252;83;21176;-81
2022/03/28 02:42:40;;;;;;;4.62;2.52;;;;;;;-4.75;100.00;101829.21;1715199;83;21631;-81
2022/03/28 02:45:09;;;;;;;3.47;2.25;;;;;;;-4.76;100.00;101831.31;1715193;83;21055;-83
2022/03/28 02:47:39;;;;;;;6.28;2.50;;;;;;;-4.77;100.00;101831.72;1683432;83;21607;-83
2022/03/28 02:50:09;;;;;;;4.65;2.75;;;;;;;-4.76;100.00;101841.48;1691254;84;21061;-82
2022/03/28 02:52:36;;;;;;;7.22;3.30;;;;;;;-4.78;100.00;101832.59;1718857;82;21096;-82
2022/03/28 02:55:04;;;;;;;7.70;3.37;;;;;;;-4.78;100.00;101837.67;1718255;83;21173;-84
2022/03/28 02:57:32;;;;;;;10.45;3.30;;;;;;;-4.78;100.00;101835.12;1718997;83;21075;-87
2022/03/28 03:00:00;;;;;;;8.63;3.08;;;;;;;-4.79;100.00;101838.50;1690084;83;21612;-83
2022/03/28 03:02:27;;;;;;;9.15;2.62;;;;;;;-4.81;100.00;101847.80;1719176;83;21564;-83
2022/03/28 03:04:55;;;;;;;4.65;2.67;;;;;;;-4.82;100.00;101844.82;1719713;83;21846;-82
2022/03/28 03:07:22;;;;;;;6.55;2.85;;;;;;;-4.84;100.00;101843.95;1719641;83;21605;-84
2022/03/28 03:09:51;;;;;;;6.30;2.98;;;;;;;-4.86;100.00;101849.45;1719448;83;21070;-82
2022/03/28 03:12:19;;;;;;;7.17;2.85;;;;;;;-4.87;100.00;101849.02;1720371;83;21083;-83
2022/03/28 03:14:46;;;;;;;6.75;2.87;;;;;;;-4.87;100.00;101858.31;1718230;83;21585;-82
2022/03/28 03:17:14;;;;;;;7.45;3.02;;;;;;;-4.89;100.00;101855.77;1720130;83;21075;-83
2022/03/28 03:19:44;;;;;;;4.70;3.05;;;;;;;-4.91;100.00;101862.52;1719748;83;21020;-82
2022/03/28 03:22:18;;;;;;;7.05;3.00;;;;;;;-4.93;100.00;101869.30;1719811;83;21110;-84
2022/03/28 03:24:44;;;;;;;6.62;2.20;;;;;;;-4.94;100.00;101871.41;1720666;82;21029;-83
2022/03/28 03:27:12;;;;;;;4.47;2.55;;;;;;;-4.94;100.00;101873.52;1720462;82;21515;-82
2022/03/28 03:29:41;;;;;;;4.15;2.10;;;;;;;-4.93;100.00;101880.73;1732734;82;20982;-83
2022/03/28 03:32:10;;;;;;;4.97;2.22;;;;;;;-4.92;100.00;101887.49;1739148;82;21155;-83
2022/03/28 03:34:37;;;;;;;7.33;2.75;;;;;;;-4.95;100.00;101881.97;1739385;81;21547;-88
2022/03/28 03:37:05;;;;;;;6.80;2.92;;;;;;;-4.96;100.00;101880.27;1738657;81;21062;-88
2022/03/28 03:39:35;;;;;;;7.42;2.75;;;;;;;-4.95;100.00;101888.32;1739127;82;21093;-85
2022/03/28 03:42:03;;;;;;;3.60;2.40;;;;;;;-4.93;100.00;101885.81;1736081;82;21890;-81
2022/03/28 03:44:30;;;;;;;4.55;2.55;;;;;;;-4.91;100.00;101883.72;1691125;83;21319;-80
2022/03/28 03:46:58;;;;;;;9.78;3.00;;;;;;;-4.88;100.00;101891.78;1710080;83;21086;-84
2022/03/28 03:49:25;;;;;;;6.62;2.72;;;;;;;-4.86;100.00;101894.33;1710258;83;21508;-82
2022/03/28 03:51:53;;;;;;;7.65;3.00;;;;;;;-4.84;100.00;101900.29;1710290;83;21034;-81
2022/03/28 03:54:20;;;;;;;11.93;3.00;;;;;;;-4.82;100.00;101901.16;1709559;83;21065;-82
2022/03/28 03:56:48;;;;;;;11.60;2.75;;;;;;;-4.79;100.00;101903.31;1710071;83;21164;-82
2022/03/28 03:59:15;;;;;;;7.20;3.08;;;;;;;-4.73;100.00;101908.02;1667491;83;21038;-82
2022/03/28 04:01:43;;;;;;;8.20;2.60;;;;;;;-4.69;100.00;101908.05;1709792;83;21057;-83
2022/03/28 04:04:12;;;;;;;5.08;2.67;;;;;;;-4.62;100.00;101910.23;1710752;83;21078;-84
2022/03/28 04:06:40;;;;;;;6.55;2.87;;;;;;;-4.56;100.00;101911.96;1710397;83;21063;-83
2022/03/28 04:09:07;;;;;;;3.22;2.20;;;;;;;-4.47;100.00;101914.59;1710497;83;21177;-82
2022/03/28 04:11:36;;;;;;;9.83;2.83;;;;;;;-4.41;100.00;101909.58;1710700;83;21011;-84
2022/03/28 04:14:04;;;;;;;8.20;4.15;;;;;;;-4.34;100.00;101908.78;1710461;83;21070;-82
2022/03/28 04:16:32;;;;;;;11.50;5.67;;;;;;;-4.28;100.00;101910.09;1708371;83;21457;-85
2022/03/28 04:19:00;;;;;;;9.48;5.08;;;;;;;-4.19;100.00;101914.81;1708047;84;21018;-82
2022/03/28 04:21:28;;;;;;;11.20;5.87;;;;;;;-4.10;100.00;101920.38;1707990;83;21586;-84
2022/03/28 04:23:56;;;;;;;10.23;6.05;;;;;;;-4.06;100.00;101918.30;1708099;84;21524;-81
2022/03/28 04:26:23;;;;;;;9.00;5.90;;;;;;;-3.98;100.00;101921.74;1708460;84;21496;-82
2022/03/28 04:28:50;;;;;;;10.00;5.75;;;;;;;-3.91;100.00;101922.20;1707882;83;21039;-82
2022/03/28 04:31:17;;;;;;;10.25;4.90;;;;;;;-3.84;100.00;101917.58;1707848;84;21007;-82
2022/03/28 04:33:44;;;;;;;7.22;4.00;;;;;;;-3.75;100.00;101924.84;1708508;84;22042;-82
2022/03/28 04:36:11;;;;;;;5.78;3.90;;;;;;;-3.67;100.00;101916.82;1708229;83;22063;-85
2022/03/28 04:38:39;;;;;;;8.40;3.35;;;;;;;-3.58;100.00;101921.09;1708306;83;21137;-82
2022/03/28 04:41:06;;;;;;;5.67;2.70;;;;;;;-3.48;100.00;101920.30;1708479;83;21125;-82
2022/03/28 04:43:33;;;;;;;7.55;3.10;;;;;;;-3.39;100.00;101922.89;1708626;84;21694;-83
2022/03/28 04:46:00;;;;;;;7.08;2.98;;;;;;;-3.29;100.00;101920.38;1708134;84;21150;-84
2022/03/28 04:48:27;;;;;;;10.15;3.47;;;;;;;-3.20;100.00;101926.75;1708431;84;21015;-86
2022/03/28 04:50:56;;;;;;;7.30;3.37;;;;;;;-3.11;100.00;101924.67;1708212;84;21540;-85
2022/03/28 04:53:23;;;;;;;8.23;3.67;;;;;;;-3.02;100.00;101916.62;1665135;84;21070;-86
2022/03/28 04:55:50;;;;;;;7.20;3.60;;;;;;;-2.91;100.00;101910.70;1687537;83;21080;-84
2022/03/28 04:58:18;;;;;;;8.60;3.80;;;;;;;-2.81;100.00;101910.29;1678117;85;21990;-84
2022/03/28 05:00:45;;;;;;;6.95;3.12;;;;;;;-2.71;100.00;101918.38;1714096;83;21035;-83
2022/03/28 05:03:12;;;;;;;5.60;3.60;;;;;;;-2.63;100.00;101916.69;1679863;85;21034;-84
2022/03/28 05:05:40;;;;;;;9.83;3.80;;;;;;;-2.54;100.00;101912.88;1679566;85;21022;-83
2022/03/28 05:08:08;;;;;;;6.53;3.45;;;;;;;-2.45;100.00;101929.03;1680171;85;21097;-83
2022/03/28 05:10:35;;;;;;;8.13;4.08;;;;;;;-2.36;100.00;101930.28;1714226;83;21750;-82
2022/03/28 05:13:02;;;;;;;5.12;3.37;;;;;;;-2.27;100.00;101920.08;1679712;84;21101;-83
2022/03/28 05:15:31;;;;;;;7.00;3.62;;;;;;;-2.14;100.00;101918.80;1716566;83;21090;-84
2022/03/28 05:18:01;;;;;;;7.10;3.65;;;;;;;-2.06;100.00;101915.37;1721837;83;20979;-85
2022/03/28 05:20:28;;;;;;;7.45;4.00;;;;;;;-1.97;100.00;101920.91;1721468;83;21042;-81
2022/03/28 05:22:55;;;;;;;7.33;3.95;;;;;;;-1.86;100.00;101921.30;1719997;83;21390;-82
2022/03/28 05:25:22;;;;;;;8.03;4.10;;;;;;;-1.77;100.00;101923.83;1720388;83;21598;-83
2022/03/28 05:27:49;;;;;;;11.75;4.08;;;;;;;-1.67;100.00;101920.41;1717627;81;21064;-83
2022/03/28 05:30:19;;;;;;;6.85;3.95;;;;;;;-1.59;100.00;101921.23;1717625;83;21122;-83
2022/03/28 05:32:46;;;;;;;6.17;3.62;;;;;;;-1.50;100.00;101919.05;1720374;82;21062;-83
2022/03/28 05:35:13;;;;;;;8.28;4.42;;;;;;;-1.43;100.00;101921.17;1726384;82;21162;-85
2022/03/28 05:37:41;;;;;;;8.10;3.83;;;;;;;-1.33;100.00;101927.95;1720488;82;21787;-89
2022/03/28 05:40:10;;;;;;;10.63;3.85;;;;;;;-1.25;100.00;101920.23;1725995;82;21053;-88
2022/03/28 05:42:38;;;;;;;11.65;4.45;;;;;;;-1.14;100.00;101919.77;1721119;82;21570;-82
2022/03/28 05:45:08;;;;;;;7.50;3.62;;;;;;;-1.03;100.00;101922.25;1727694;82;21109;-84
2022/03/28 05:47:37;;;;;;;9.55;4.30;;;;;;;-0.92;100.00;101922.19;1731924;81;21888;-87
2022/03/28 05:50:05;;;;;;;7.12;3.80;;;;;;;-0.84;100.00;101918.31;1727814;82;21018;-88
2022/03/28 05:52:33;;;;;;;6.53;3.40;;;;;;;-0.71;100.00;101922.89;1739004;82;21057;-84
2022/03/28 05:55:00;;;;;;;4.95;3.05;;;;;;;-0.64;94.03;101919.02;1726877;82;21068;-84
2022/03/28 05:57:28;;;;;;;10.03;3.60;;;;;;;-0.56;95.49;101921.94;1727893;82;21069;-84
2022/03/28 05:59:55;;;;;;;5.42;2.90;;;;;;;-0.46;95.06;101918.87;1739602;82;21169;-82
2022/03/28 06:02:22;;;;;;;5.50;2.58;;;;;;;-0.35;92.71;101925.59;1739698;82;21077;-84
2022/03/28 06:04:49;;;;;;;5.42;2.45;;;;;;;-0.21;79.99;101918.25;1725347;82;21042;-83
2022/03/28 06:07:18;;;;;;;4.25;2.60;;;;;;;-0.09;76.63;101924.52;1726193;81;21142;-84
2022/03/28 06:09:47;;;;;;;5.60;2.90;;;;;;;0.08;77.75;101932.47;1696679;83;21618;-84
2022/03/28 06:12:15;;;;;;;11.35;3.60;;;;;;;0.24;71.39;101929.33;1733913;82;21872;-84
2022/03/28 06:14:43;;;;;;;23.83;14.30;;;;;;;0.32;69.91;101927.53;1739436;81;21010;-85
2022/03/28 06:17:11;;;;;;;52.48;15.05;;;;;;;0.41;70.13;101935.53;1737144;82;21014;-85
2022/03/28 06:19:39;;;;;;;12.00;4.33;;;;;;;0.58;96.27;101928.50;1736859;82;21136;-85
2022/03/28 06:22:07;;;;;;;18.07;3.52;;;;;;;0.85;87.40;101936.69;1738081;82;21085;-86
2022/03/28 06:24:36;;;;;;;13.93;2.85;;;;;;;1.03;74.96;101929.62;1737543;82;21101;-89
2022/03/28 06:27:04;;;;;;;28.12;3.02;;;;;;;1.13;67.20;101924.78;1737120;82;21018;-86
2022/03/28 06:29:33;;;;;;;16.55;2.80;;;;;;;1.15;67.43;101924.75;1737160;82;21066;-85
2022/03/28 06:32:02;;;;;;;7.80;1.98;;;;;;;1.20;64.86;101916.56;1736903;82;21065;-85
2022/03/28 06:34:30;;;;;;;6.03;1.95;;;;;;;1.29;57.87;101927.95;1737042;82;21563;-84
2022/03/28 06:37:01;;;;;;;12.20;2.60;;;;;;;1.36;57.39;101935.13;1736572;82;21244;-87
2022/03/28 06:39:29;;;;;;;6.58;2.00;;;;;;;1.38;56.60;101930.38;1736831;82;21066;-84
2022/03/28 06:41:56;;;;;;;11.15;2.98;;;;;;;1.39;55.32;101938.49;1736970;82;21101;-86
2022/03/28 06:44:24;;;;;;;15.43;2.83;;;;;;;1.45;55.88;101933.70;1736743;82;21106;-87
2022/03/28 06:46:51;;;;;;;14.07;2.70;;;;;;;1.47;56.46;101930.69;1736683;82;21038;-87
2022/03/28 06:49:18;;;;;;;5.10;1.87;;;;;;;1.54;58.57;101922.42;1736980;82;21130;-87
2022/03/28 06:51:47;;;;;;;4.25;2.08;;;;;;;1.70;55.23;101915.33;1737075;82;21042;-88
2022/03/28 06:54:16;;;;;;;2.35;1.35;;;;;;;1.82;52.86;101912.54;1736951;82;21571;-85
2022/03/28 06:56:45;;;;;;;7.70;2.02;;;;;;;1.89;53.49;101916.69;1736712;82;21007;-88
2022/03/28 06:59:13;;;;;;;3.33;1.92;;;;;;;1.97;53.39;101924.27;1737343;82;21519;-87
2022/03/28 07:01:41;;;;;;;4.92;1.72;;;;;;;2.03;50.16;101932.31;1726581;82;21170;-87
2022/03/28 07:04:13;;;;;;;6.45;2.42;;;;;;;2.10;50.74;101938.16;1718427;82;21109;-88
2022/03/28 07:06:39;;;;;;;5.50;1.85;;;;;;;2.22;51.56;101931.53;1708499;84;22632;-86
2022/03/28 07:09:07;;;;;;;3.15;1.95;;;;;;;2.36;51.24;101925.67;1708481;84;21035;-85
2022/03/28 07:25:04;;;;;;;4.70;2.50;;;;;;;3.02;48.96;101924.32;1843574;76;23404;-85
2022/03/28 07:27:39;;;;;;;4.08;2.30;;;;;;;3.08;47.48;101914.75;1794314;78;21053;-85
2022/03/28 07:30:11;;;;;;;15.75;3.35;;;;;;;3.16;47.08;101910.69;1798964;78;21491;-86
2022/03/28 07:32:39;;;;;;;4.00;2.37;;;;;;;3.25;49.52;101907.91;1792887;78;21057;-83
2022/03/28 07:35:08;;;;;;;11.65;3.17;;;;;;;3.43;45.27;101904.03;1789315;78;21010;-84
2022/03/28 07:37:38;;;;;;;4.03;2.50;;;;;;;3.55;46.28;101893.03;1806403;78;21049;-83
2022/03/28 07:40:09;;;;;;;2.33;1.82;;;;;;;3.60;44.53;101880.87;1820629;78;21000;-84
2022/03/28 07:42:40;;;;;;;3.10;1.98;;;;;;;3.65;43.82;101891.89;1786880;78;21252;-86
2022/03/28 07:45:18;;;;;;;5.78;2.40;;;;;;;3.72;41.93;101878.42;1778304;78;21568;-86
2022/03/28 07:47:46;;;;;;;5.47;2.42;;;;;;;3.75;43.08;101875.33;1804948;78;21031;-83
2022/03/28 07:50:17;;;;;;;4.30;1.92;;;;;;;3.85;43.88;101882.81;1805947;78;21061;-85
2022/03/28 07:52:47;;;;;;;10.43;1.80;;;;;;;3.97;42.75;101879.89;1829888;78;21597;-88
2022/03/28 07:55:18;;;;;;;9.18;2.30;;;;;;;4.05;42.36;101874.09;1831488;78;21132;-87
2022/03/28 07:57:47;;;;;;;8.08;2.00;;;;;;;4.07;41.22;101874.90;1795296;78;21544;-85
2022/03/28 08:00:17;;;;;;;3.10;2.10;;;;;;;4.10;41.71;101875.25;1794203;79;21121;-85
2022/03/28 08:02:44;;;;;;;11.70;2.40;;;;;;;4.17;40.80;101860.02;1800082;78;21052;-84
2022/03/28 08:05:12;;;;;;;6.25;2.40;;;;;;;4.19;40.98;101856.95;1820827;77;21092;-85
2022/03/28 08:07:39;;;;;;;5.92;1.85;;;;;;;4.19;40.57;101855.66;1820769;77;21779;-83
2022/03/28 08:10:09;;;;;;;6.53;2.00;;;;;;;4.18;39.57;101851.84;1819958;78;20974;-83
2022/03/28 08:12:38;;;;;;;6.60;2.20;;;;;;;4.17;39.13;101850.16;1809657;78;21017;-85
2022/03/28 08:15:07;;;;;;;2.47;1.52;;;;;;;4.19;39.05;101859.98;1818257;78;22236;-87
2022/03/28 08:17:37;;;;;;;2.22;1.25;;;;;;;4.22;39.23;101846.98;1820795;78;21142;-88
2022/03/28 08:20:09;;;;;;;2.72;1.50;;;;;;;4.30;38.17;101841.17;1821203;78;21039;-86
2022/03/28 08:22:37;;;;;;;2.50;1.25;;;;;;;4.44;37.49;101836.06;1817251;78;21072;-86
2022/03/28 08:25:07;;;;;;;4.90;1.40;;;;;;;4.56;37.49;101827.95;1813316;78;20999;-85
2022/03/28 08:27:36;;;;;;;3.02;1.40;;;;;;;4.67;36.14;101817.30;1812050;78;21034;-83
2022/03/28 08:30:05;;;;;;;8.05;2.60;;;;;;;4.76;36.77;101818.77;1812680;78;21388;-87
2022/03/28 08:32:35;;;;;;;2.58;1.55;;;;;;;4.96;37.82;101816.83;1799045;78;21140;-85
2022/03/28 08:35:06;;;;;;;5.95;1.72;;;;;;;5.16;36.28;101801.52;1732555;82;21046;-87
2022/03/28 08:37:33;;;;;;;5.95;1.80;;;;;;;5.18;35.17;101808.78;1743854;80;21630;-89
2022/03/28 08:40:01;;;;;;;8.28;1.70;;;;;;;5.00;35.44;101805.07;1722054;81;21105;-92
2022/03/28 08:42:28;;;;;;;10.98;1.90;;;;;;;4.99;38.27;101807.69;1742819;80;21308;-88
2022/03/28 08:44:56;;;;;;;5.45;2.10;;;;;;;5.08;37.64;101802.69;1747611;81;22299;-89
2022/03/28 08:47:24;;;;;;;15.55;2.37;;;;;;;5.21;35.92;101807.83;1741732;79;21252;-90
2022/03/28 08:49:54;;;;;;;3.92;2.25;;;;;;;5.27;38.63;101803.73;1722572;82;21081;-85
2022/03/28 08:52:22;;;;;;;5.05;2.30;;;;;;;5.32;35.67;101796.70;1755631;80;21564;-88
2022/03/28 08:54:51;;;;;;;6.28;2.30;;;;;;;5.33;37.42;101796.23;1773637;80;22306;-86
2022/03/28 09:02:05;;;;;;;11.57;3.50;;;;;;;5.32;33.36;101792.82;1747235;80;21080;-85
2022/03/28 09:16:52;;;;;;;5.58;3.10;;;;;;;5.69;34.32;101760.51;1731468;81;21007;-82
2022/03/28 09:23:51;;;;;;;8.83;5.42;;;;;;;5.91;34.62;101751.95;1760464;80;21105;-83
2022/03/28 09:38:43;;;;;;;11.55;6.50;;;;;;;6.02;34.49;101740.41;1744382;81;20979;-82
2022/03/28 09:41:11;;;;;;;12.20;5.83;;;;;;;6.15;34.45;101734.72;1717404;82;21422;-83
2022/03/28 09:48:02;;;;;;;8.35;4.17;;;;;;;6.51;34.70;101719.09;1705102;82;21554;-83
2022/03/28 09:59:47;;;;;;;7.72;4.25;;;;;;;6.88;33.14;101702.50;1736285;82;21073;-85
2022/03/28 10:02:21;;;;;;;9.73;6.15;;;;;;;6.84;33.34;101716.03;1759075;80;21069;-82
2022/03/28 10:08:20;;;;;;;6.42;4.70;;;;;;;6.79;34.42;101683.86;1732816;81;21082;-82
2022/03/28 10:10:50;;;;;;;12.70;5.65;;;;;;;7.05;35.23;101688.82;1733722;81;21101;-81
2022/03/28 10:13:22;;;;;;;17.90;6.00;;;;;;;7.16;33.32;101694.39;1745383;81;21046;-83
2022/03/28 10:15:51;;;;;;;14.43;6.40;;;;;;;7.12;32.72;101686.35;1726716;81;21276;-83
2022/03/28 10:18:19;;;;;;;11.93;5.95;;;;;;;7.06;34.52;101682.27;1728925;81;21021;-82
2022/03/28 10:20:53;;;;;;;7.20;3.80;;;;;;;7.12;35.61;101684.23;1736946;81;21837;-83
2022/03/28 10:23:22;;;;;;;11.12;4.05;;;;;;;7.23;35.01;101671.19;1738942;80;21109;-88
2022/03/28 10:25:53;;;;;;;7.28;4.78;;;;;;;7.25;34.56;101682.77;1730848;81;21034;-83
2022/03/28 10:28:20;;;;;;;9.18;3.70;;;;;;;7.18;33.75;101665.81;1732128;81;21505;-83
2022/03/28 10:31:15;;;;;;;6.53;2.62;;;;;;;7.23;35.66;101661.27;1732375;81;20946;-84
2022/03/28 10:33:51;;;;;;;7.58;3.67;;;;;;;7.30;32.86;101663.14;1735199;81;21093;-87
2022/03/28 10:36:29;;;;;;;7.45;4.60;;;;;;;7.25;32.25;101643.91;1732819;82;21073;-83
2022/03/28 10:39:34;;;;;;;12.15;4.80;;;;;;;7.16;31.97;101641.28;1735978;81;21019;-83
2022/03/28 10:42:09;;;;;;;7.70;4.42;;;;;;;7.10;34.17;101633.33;1736351;82;21023;-85
2022/03/28 10:44:48;;;;;;;8.48;3.50;;;;;;;7.11;33.42;101627.67;1712301;82;21830;-91
2022/03/28 10:47:17;;;;;;;6.83;3.95;;;;;;;7.17;32.32;101622.22;1721534;81;21160;-88
2022/03/28 10:49:46;;;;;;;24.12;4.87;;;;;;;7.27;32.11;101617.48;1763932;80;21013;-85
2022/03/28 10:52:16;;;;;;;11.03;3.75;;;;;;;7.44;34.09;101615.41;1736410;82;21063;-83
2022/03/28 10:54:43;;;;;;;7.72;4.10;;;;;;;7.53;33.17;101606.39;1734086;82;21047;-82
2022/03/28 10:57:27;;;;;;;6.75;4.05;;;;;;;7.60;31.93;101600.00;1733846;82;21515;-81
2022/03/28 11:00:05;;;;;;;9.13;3.67;;;;;;;7.66;33.43;101594.96;1731515;82;21197;-82
2022/03/28 11:02:33;;;;;;;8.15;3.80;;;;;;;7.80;33.04;101594.31;1733179;82;21036;-82
2022/03/28 11:05:14;;;;;;;7.10;3.62;;;;;;;7.79;33.10;101585.70;1729277;82;21013;-84
2022/03/28 11:07:42;;;;;;;9.70;4.03;;;;;;;7.82;33.76;101579.06;1721568;82;21646;-82
2022/03/28 11:10:13;;;;;;;9.13;4.20;;;;;;;7.87;33.85;101578.41;1734171;82;21441;-88
2022/03/28 11:12:42;;;;;;;10.30;4.00;;;;;;;7.95;32.31;101574.12;1729362;82;21579;-81
2022/03/28 11:15:19;;;;;;;7.75;3.72;;;;;;;7.95;34.60;101562.45;1734184;82;21065;-81
2022/03/28 11:18:00;;;;;;;6.45;3.37;;;;;;;8.04;33.90;101547.73;1733943;82;21051;-81
2022/03/28 11:20:49;;;;;;;4.42;2.60;;;;;;;8.12;33.75;101542.19;1731593;82;21054;-81
2022/03/28 11:23:18;;;;;;;8.20;3.40;;;;;;;8.16;33.79;101519.05;1708372;82;21102;-79
2022/03/28 11:25:53;;;;;;;6.60;2.90;;;;;;;8.33;35.15;101533.75;1728000;81;21143;-82
2022/03/28 11:28:29;;;;;;;6.22;3.65;;;;;;;8.56;35.26;101521.84;1730098;81;21089;-82
2022/03/28 11:31:11;;;;;;;7.30;3.12;;;;;;;8.72;34.02;101513.62;1709909;82;21034;-83
2022/03/28 11:33:46;;;;;;;10.35;4.20;;;;;;;8.83;32.86;101514.34;1729037;81;21054;-89
2022/03/28 11:36:20;;;;;;;12.88;3.33;;;;;;;8.86;33.93;101510.73;1732403;81;21106;-82
2022/03/28 11:38:56;;;;;;;19.05;4.10;;;;;;;8.86;33.66;101506.40;1717597;82;21125;-83
2022/03/28 11:41:56;;;;;;;11.33;2.72;;;;;;;8.89;35.02;101512.74;1703149;84;21030;-82
2022/03/28 11:44:25;;;;;;;12.68;3.25;;;;;;;8.91;34.42;101503.09;1715809;82;21059;-81
2022/03/28 11:47:03;;;;;;;7.03;3.10;;;;;;;8.92;35.71;101490.48;1734441;82;21094;-82
2022/03/28 11:49:31;;;;;;;6.53;3.22;;;;;;;9.02;33.46;101483.48;1708960;82;21069;-81
2022/03/28 11:52:03;;;;;;;8.55;2.70;;;;;;;9.10;34.42;101476.94;1734291;82;21940;-82
2022/03/28 11:54:30;;;;;;;8.65;3.45;;;;;;;9.08;32.50;101477.95;1731186;82;21133;-82
2022/03/28 11:59:53;;;;;;;12.33;3.52;;;;;;;8.99;33.21;101470.22;1734129;82;20999;-82
2022/03/28 12:02:20;;;;;;;5.87;3.20;;;;;;;8.99;33.02;101472.33;1733878;82;21067;-83
2022/03/28 12:04:49;;;;;;;5.95;3.33;;;;;;;9.02;33.90;101454.44;1733378;82;21845;-82
2022/03/28 12:07:17;;;;;;;9.98;2.45;;;;;;;9.08;33.39;101451.52;1739701;81;21062;-84
2022/03/28 12:09:45;;;;;;;17.67;3.67;;;;;;;9.02;33.01;101447.94;1730062;82;21018;-83
2022/03/28 12:12:15;;;;;;;8.65;2.95;;;;;;;8.89;34.11;101435.27;1726967;81;21607;-81
2022/03/28 12:14:43;;;;;;;13.20;3.40;;;;;;;8.82;34.33;101442.09;1711357;82;20956;-82
2022/03/28 12:17:27;;;;;;;5.45;2.65;;;;;;;8.80;35.12;101417.14;1728970;81;21138;-81
2022/03/28 12:20:08;;;;;;;6.10;2.52;;;;;;;8.76;33.92;101411.72;1732955;81;20999;-86
2022/03/28 12:22:46;;;;;;;6.95;2.30;;;;;;;8.63;33.40;101409.81;1727902;81;21059;-88
2022/03/28 12:25:36;;;;;;;8.18;2.90;;;;;;;8.51;34.51;101411.31;1733539;82;21576;-84
2022/03/28 12:28:19;;;;;;;8.08;3.70;;;;;;;8.43;34.79;101409.99;1708440;83;21070;-83
2022/03/28 12:30:55;;;;;;;6.92;3.42;;;;;;;8.34;34.70;101408.27;1709166;83;21081;-85
2022/03/28 12:33:33;;;;;;;7.40;3.05;;;;;;;8.33;37.61;101403.16;1709464;82;21583;-84
2022/03/28 12:36:07;;;;;;;8.00;3.30;;;;;;;8.42;36.46;101391.44;1724233;81;21114;-83
2022/03/28 12:38:43;;;;;;;11.68;3.47;;;;;;;8.53;36.17;101383.48;1738187;81;21094;-82
2022/03/28 12:41:16;;;;;;;6.20;3.00;;;;;;;8.65;37.54;101369.47;1732763;82;21484;-89
2022/03/28 12:43:52;;;;;;;12.75;3.40;;;;;;;8.79;36.66;101359.63;1733156;82;21118;-82